NCAR-RAP Real-Time Weather Data

Output produced by METARs form (18 August 2018  01:02 UTC)
found at http://weather.rap.ucar.edu/surface/
 
RJDT 180000Z 04008KT 360V090 9999 FEW025 SCT030 26/19 Q1011
RJDT 172300Z 05007KT 360V100 9999 FEW025 SCT030 26/18 Q1011
RJDT 172230Z 07011KT 030V090 9999 FEW020 SCT025 25/19 Q1011
RJDT 171100Z 05011KT 010V100 9999 SCT030 25/18 Q1010
RJDT 171000Z 05010KT 020V100 9999 SCT030 25/17 Q1010
RJDT 170900Z 04009G20KT 340V090 9999 FEW025 BKN030 26/19 Q1010
RJDT 170800Z 05012G23KT 360V100 9999 SCT030 26/18 Q1010
RJDT 170700Z 05013G25KT 340V110 9999 FEW025 BKN030 27/20 Q1010
RJDT 170600Z 05013G24KT 360V090 9999 FEW025 BKN030 27/19 Q1010
RJDT 170500Z 07011KT 360V100 9999 FEW020 BKN030 28/19 Q1011
RJDT 170400Z 07017G27KT 030V090 9999 FEW020 BKN030 27/19 Q1011
RJDT 170300Z 07013KT 020V100 9999 FEW020 SCT030 28/20 Q1011
RJDT 170200Z 07015G27KT 020V090 9999 FEW020 SCT030 BKN/// 28/19 Q1011
RJDT 170100Z 07016G27KT 030V100 9999 FEW020 SCT030 BKN/// 27/19 Q1011
RJDT 170000Z 07017G31KT 030V100 9999 FEW030 BKN/// 26/19 Q1011
RJDT 162300Z 07016KT 360V110 9999 FEW015 BKN/// 26/19 Q1011
RJDT 162230Z 06010G20KT 010V110 9999 FEW015 SCT050 BKN/// 25/18 Q1011
RJDT 161100Z 06009G20KT 360V100 9000 -SHRA FEW010 BKN012 26/25 Q1010
RJDT 161000Z 06010KT 020V100 9999 FEW007 BKN010 BKN050 26/25 Q1009
RJDT 160900Z 04007G17KT 360V080 9999 -SHRA FEW010 SCT030 BKN050 26/25 Q1009
RJDT 160800Z 05005KT 350V100 9999 -SHRA FEW006 SCT010 BKN040 26/25 Q1009
RJDT 160700Z 06005KT 020V100 9999 -SHRA FEW006 SCT010 BKN035 26/26 Q1008
RJDT 160643Z 05006KT 360V100 9999 -SHRA SCT006 SCT015 BKN040 26/26 Q1008 RMK 3ST006 4CU015 6CU040 A2978
RJDT 160621Z 06005KT 020V110 8000 -SHRA FEW005 BKN008 BKN040 26/26 Q1008 RMK 1ST005 5CU008 6CU040 A2978
RJDT 160600Z 06004KT 020V120 9999 -SHRA FEW005 SCT040 BKN100 26/25 Q1008
RJDT 160500Z 03006KT 9999 -RA FEW005 SCT007 BKN060 27/26 Q1008
RJDT 160437Z 04007KT 9999 -RA FEW005 BKN007 27/26 Q1008 RMK 1ST005 6ST007 A2979
RJDT 160400Z 05006KT 010V080 9999 -RA FEW007 BKN090 27/26 Q1008
RJDT 160300Z 04003KT 360V080 9999 -RA FEW010 SCT035 BKN050 27/26 Q1009
RJDT 160200Z 03004KT 360V060 9999 -RA FEW010 SCT090 BKN140 27/25 Q1009
RJDT 160100Z VRB02KT 9999 -RA FEW010 SCT050 BKN070 27/25 Q1009
RJDT 160000Z 13004KT 110V170 9999 -RA FEW015 SCT050 BKN080 27/25 Q1008
RJDT 152300Z 15004KT 120V190 9999 FEW015 SCT080 BKN100 27/25 Q1008
RJDT 152230Z 19003KT 120V290 9999 FEW010 SCT090 BKN120 27/25 Q1008